sensor_id;sensor_type;location;lat;lon;timestamp;temperature;humidity
16249;DHT22;8232;51.678;6.610;2022-07-23T00:01:40;17.10;1.00
16249;DHT22;8232;51.678;6.610;2022-07-23T00:04:07;17.10;1.00
16249;DHT22;8232;51.678;6.610;2022-07-23T00:06:34;17.10;1.00
16249;DHT22;8232;51.678;6.610;2022-07-23T00:09:01;17.00;1.00
16249;DHT22;8232;51.678;6.610;2022-07-23T00:11:27;17.00;1.00
16249;DHT22;8232;51.678;6.610;2022-07-23T00:13:54;17.00;1.00
16249;DHT22;8232;51.678;6.610;2022-07-23T00:16:23;17.00;1.00
16249;DHT22;8232;51.678;6.610;2022-07-23T00:18:51;16.90;1.00
16249;DHT22;8232;51.678;6.610;2022-07-23T00:21:18;17.00;1.00
16249;DHT22;8232;51.678;6.610;2022-07-23T00:23:45;16.90;1.00
16249;DHT22;8232;51.678;6.610;2022-07-23T00:26:12;16.90;1.00
16249;DHT22;8232;51.678;6.610;2022-07-23T00:28:38;16.90;1.00
16249;DHT22;8232;51.678;6.610;2022-07-23T00:31:05;16.90;1.00
16249;DHT22;8232;51.678;6.610;2022-07-23T00:33:32;16.90;1.00
16249;DHT22;8232;51.678;6.610;2022-07-23T00:36:00;16.90;1.00
16249;DHT22;8232;51.678;6.610;2022-07-23T00:38:27;16.80;1.00
16249;DHT22;8232;51.678;6.610;2022-07-23T00:40:54;16.80;1.00
16249;DHT22;8232;51.678;6.610;2022-07-23T00:43:21;16.80;1.00
16249;DHT22;8232;51.678;6.610;2022-07-23T00:45:48;16.80;1.00
16249;DHT22;8232;51.678;6.610;2022-07-23T00:48:15;16.60;1.00
16249;DHT22;8232;51.678;6.610;2022-07-23T00:50:43;16.60;1.00
16249;DHT22;8232;51.678;6.610;2022-07-23T00:53:11;16.50;1.00
16249;DHT22;8232;51.678;6.610;2022-07-23T00:55:39;16.30;1.00
16249;DHT22;8232;51.678;6.610;2022-07-23T00:58:06;16.20;1.00
16249;DHT22;8232;51.678;6.610;2022-07-23T01:00:33;16.00;1.00
16249;DHT22;8232;51.678;6.610;2022-07-23T01:03:00;16.00;1.00
16249;DHT22;8232;51.678;6.610;2022-07-23T01:05:27;15.90;1.00
16249;DHT22;8232;51.678;6.610;2022-07-23T01:07:54;15.90;1.00
16249;DHT22;8232;51.678;6.610;2022-07-23T01:10:23;15.90;1.00
16249;DHT22;8232;51.678;6.610;2022-07-23T01:13:00;16.00;1.00
16249;DHT22;8232;51.678;6.610;2022-07-23T01:15:27;16.00;1.00
16249;DHT22;8232;51.678;6.610;2022-07-23T01:17:54;16.00;1.00
16249;DHT22;8232;51.678;6.610;2022-07-23T01:20:22;16.00;1.00
16249;DHT22;8232;51.678;6.610;2022-07-23T01:22:50;15.80;1.00
16249;DHT22;8232;51.678;6.610;2022-07-23T01:25:17;15.70;1.00
16249;DHT22;8232;51.678;6.610;2022-07-23T01:27:44;15.70;1.00
16249;DHT22;8232;51.678;6.610;2022-07-23T01:30:12;15.60;1.00
16249;DHT22;8232;51.678;6.610;2022-07-23T01:32:39;15.70;1.00
16249;DHT22;8232;51.678;6.610;2022-07-23T01:35:07;15.60;1.00
16249;DHT22;8232;51.678;6.610;2022-07-23T01:37:34;15.50;1.00
16249;DHT22;8232;51.678;6.610;2022-07-23T01:40:03;15.40;1.00
16249;DHT22;8232;51.678;6.610;2022-07-23T01:42:30;15.20;1.00
16249;DHT22;8232;51.678;6.610;2022-07-23T01:44:57;15.20;1.00
16249;DHT22;8232;51.678;6.610;2022-07-23T01:47:24;15.20;1.00
16249;DHT22;8232;51.678;6.610;2022-07-23T01:49:52;15.10;1.00
16249;DHT22;8232;51.678;6.610;2022-07-23T01:52:18;15.10;1.00
16249;DHT22;8232;51.678;6.610;2022-07-23T01:54:45;15.00;1.00
16249;DHT22;8232;51.678;6.610;2022-07-23T01:57:13;15.00;1.00
16249;DHT22;8232;51.678;6.610;2022-07-23T01:59:40;14.90;1.00
16249;DHT22;8232;51.678;6.610;2022-07-23T02:02:07;14.90;1.00
16249;DHT22;8232;51.678;6.610;2022-07-23T02:04:34;14.80;1.00
16249;DHT22;8232;51.678;6.610;2022-07-23T02:07:02;14.80;1.00
16249;DHT22;8232;51.678;6.610;2022-07-23T02:09:30;14.70;1.00
16249;DHT22;8232;51.678;6.610;2022-07-23T02:11:57;14.70;1.00
16249;DHT22;8232;51.678;6.610;2022-07-23T02:14:25;14.70;1.00
16249;DHT22;8232;51.678;6.610;2022-07-23T02:16:52;14.70;1.00
16249;DHT22;8232;51.678;6.610;2022-07-23T02:19:19;14.60;1.00
16249;DHT22;8232;51.678;6.610;2022-07-23T02:21:46;14.60;1.00
16249;DHT22;8232;51.678;6.610;2022-07-23T02:24:13;14.60;1.00
16249;DHT22;8232;51.678;6.610;2022-07-23T02:26:40;14.60;1.00
16249;DHT22;8232;51.678;6.610;2022-07-23T02:29:07;14.40;1.00
16249;DHT22;8232;51.678;6.610;2022-07-23T02:31:35;14.50;1.00
16249;DHT22;8232;51.678;6.610;2022-07-23T02:34:02;14.50;1.00
16249;DHT22;8232;51.678;6.610;2022-07-23T02:36:30;14.50;1.00
16249;DHT22;8232;51.678;6.610;2022-07-23T02:38:57;14.40;1.00
16249;DHT22;8232;51.678;6.610;2022-07-23T02:41:24;14.40;1.00
16249;DHT22;8232;51.678;6.610;2022-07-23T02:43:51;14.50;1.00
16249;DHT22;8232;51.678;6.610;2022-07-23T02:46:17;14.50;1.00
16249;DHT22;8232;51.678;6.610;2022-07-23T02:48:46;14.50;1.00
16249;DHT22;8232;51.678;6.610;2022-07-23T02:51:12;14.50;1.00
16249;DHT22;8232;51.678;6.610;2022-07-23T02:53:39;14.50;1.00
16249;DHT22;8232;51.678;6.610;2022-07-23T02:56:06;14.50;1.00
16249;DHT22;8232;51.678;6.610;2022-07-23T02:58:33;14.50;1.00
16249;DHT22;8232;51.678;6.610;2022-07-23T03:01:00;14.50;1.00
16249;DHT22;8232;51.678;6.610;2022-07-23T03:03:27;14.40;1.00
16249;DHT22;8232;51.678;6.610;2022-07-23T03:05:55;14.40;1.00
16249;DHT22;8232;51.678;6.610;2022-07-23T03:08:22;14.40;1.00
16249;DHT22;8232;51.678;6.610;2022-07-23T03:10:49;14.20;1.00
16249;DHT22;8232;51.678;6.610;2022-07-23T03:13:15;14.20;1.00
16249;DHT22;8232;51.678;6.610;2022-07-23T03:15:42;14.20;1.00
16249;DHT22;8232;51.678;6.610;2022-07-23T03:18:09;14.10;1.00
16249;DHT22;8232;51.678;6.610;2022-07-23T03:20:36;14.10;1.00
16249;DHT22;8232;51.678;6.610;2022-07-23T03:23:04;14.00;1.00
16249;DHT22;8232;51.678;6.610;2022-07-23T03:25:31;14.00;1.00
16249;DHT22;8232;51.678;6.610;2022-07-23T03:27:58;14.00;1.00
16249;DHT22;8232;51.678;6.610;2022-07-23T03:30:25;14.00;1.00
16249;DHT22;8232;51.678;6.610;2022-07-23T03:32:51;13.90;1.00
16249;DHT22;8232;51.678;6.610;2022-07-23T03:35:18;14.00;1.00
16249;DHT22;8232;51.678;6.610;2022-07-23T03:37:45;14.00;1.00
16249;DHT22;8232;51.678;6.610;2022-07-23T03:40:13;13.90;1.00
16249;DHT22;8232;51.678;6.610;2022-07-23T03:42:40;13.90;1.00
16249;DHT22;8232;51.678;6.610;2022-07-23T03:45:08;13.90;1.00
16249;DHT22;8232;51.678;6.610;2022-07-23T03:47:35;13.80;1.00
16249;DHT22;8232;51.678;6.610;2022-07-23T03:50:03;13.80;1.00
16249;DHT22;8232;51.678;6.610;2022-07-23T03:52:29;13.80;1.00
16249;DHT22;8232;51.678;6.610;2022-07-23T03:54:56;13.80;1.00
16249;DHT22;8232;51.678;6.610;2022-07-23T03:57:24;13.80;1.00
16249;DHT22;8232;51.678;6.610;2022-07-23T03:59:51;13.80;1.00
16249;DHT22;8232;51.678;6.610;2022-07-23T04:02:18;13.70;1.00
16249;DHT22;8232;51.678;6.610;2022-07-23T04:04:45;13.80;1.00
16249;DHT22;8232;51.678;6.610;2022-07-23T04:07:12;13.70;1.00
16249;DHT22;8232;51.678;6.610;2022-07-23T04:09:39;13.80;1.00
16249;DHT22;8232;51.678;6.610;2022-07-23T04:12:07;13.80;1.00
16249;DHT22;8232;51.678;6.610;2022-07-23T04:14:35;13.80;1.00
16249;DHT22;8232;51.678;6.610;2022-07-23T04:17:03;13.80;1.00
16249;DHT22;8232;51.678;6.610;2022-07-23T04:19:29;13.70;1.00
16249;DHT22;8232;51.678;6.610;2022-07-23T04:21:57;13.80;1.00
16249;DHT22;8232;51.678;6.610;2022-07-23T04:24:24;13.80;5.10
16249;DHT22;8232;51.678;6.610;2022-07-23T04:26:50;13.80;1.00
16249;DHT22;8232;51.678;6.610;2022-07-23T04:29:18;13.90;1.00
16249;DHT22;8232;51.678;6.610;2022-07-23T04:31:46;13.80;1.00
16249;DHT22;8232;51.678;6.610;2022-07-23T04:34:13;13.90;1.00
16249;DHT22;8232;51.678;6.610;2022-07-23T04:36:40;14.00;1.00
16249;DHT22;8232;51.678;6.610;2022-07-23T04:39:07;14.00;1.00
16249;DHT22;8232;51.678;6.610;2022-07-23T04:41:33;14.10;1.00
16249;DHT22;8232;51.678;6.610;2022-07-23T04:44:00;14.20;1.00
16249;DHT22;8232;51.678;6.610;2022-07-23T04:46:27;14.20;1.00
16249;DHT22;8232;51.678;6.610;2022-07-23T04:48:55;14.30;1.00
16249;DHT22;8232;51.678;6.610;2022-07-23T04:51:22;14.40;1.00
16249;DHT22;8232;51.678;6.610;2022-07-23T04:53:49;14.40;1.00
16249;DHT22;8232;51.678;6.610;2022-07-23T04:56:16;14.50;1.00
16249;DHT22;8232;51.678;6.610;2022-07-23T04:58:43;14.60;1.00
16249;DHT22;8232;51.678;6.610;2022-07-23T05:01:10;14.70;1.00
16249;DHT22;8232;51.678;6.610;2022-07-23T05:03:37;14.70;1.00
16249;DHT22;8232;51.678;6.610;2022-07-23T05:06:05;14.70;1.00
16249;DHT22;8232;51.678;6.610;2022-07-23T05:08:32;14.90;1.00
16249;DHT22;8232;51.678;6.610;2022-07-23T05:10:59;14.90;1.00
16249;DHT22;8232;51.678;6.610;2022-07-23T05:13:26;15.00;1.00
16249;DHT22;8232;51.678;6.610;2022-07-23T05:15:53;15.10;1.00
16249;DHT22;8232;51.678;6.610;2022-07-23T05:18:19;15.30;1.00
16249;DHT22;8232;51.678;6.610;2022-07-23T05:20:46;15.50;1.00
16249;DHT22;8232;51.678;6.610;2022-07-23T05:23:15;15.50;1.00
16249;DHT22;8232;51.678;6.610;2022-07-23T05:25:41;15.60;1.00
16249;DHT22;8232;51.678;6.610;2022-07-23T05:28:08;15.80;1.00
16249;DHT22;8232;51.678;6.610;2022-07-23T05:30:35;15.70;1.00
16249;DHT22;8232;51.678;6.610;2022-07-23T05:33:02;15.80;1.00
16249;DHT22;8232;51.678;6.610;2022-07-23T05:35:29;16.10;1.00
16249;DHT22;8232;51.678;6.610;2022-07-23T05:37:56;16.00;1.00
16249;DHT22;8232;51.678;6.610;2022-07-23T05:40:24;15.90;1.00
16249;DHT22;8232;51.678;6.610;2022-07-23T05:42:51;15.90;1.00
16249;DHT22;8232;51.678;6.610;2022-07-23T05:45:18;16.20;1.00
16249;DHT22;8232;51.678;6.610;2022-07-23T05:47:47;16.20;1.00
16249;DHT22;8232;51.678;6.610;2022-07-23T05:50:15;16.20;1.00
16249;DHT22;8232;51.678;6.610;2022-07-23T05:52:42;16.20;1.00
16249;DHT22;8232;51.678;6.610;2022-07-23T05:55:10;16.20;1.00
16249;DHT22;8232;51.678;6.610;2022-07-23T05:57:39;16.30;1.00
16249;DHT22;8232;51.678;6.610;2022-07-23T06:00:08;16.60;1.00
16249;DHT22;8232;51.678;6.610;2022-07-23T06:02:35;16.90;1.00
16249;DHT22;8232;51.678;6.610;2022-07-23T06:05:02;16.90;1.00
16249;DHT22;8232;51.678;6.610;2022-07-23T06:07:29;16.80;1.00
16249;DHT22;8232;51.678;6.610;2022-07-23T06:09:55;16.80;1.00
16249;DHT22;8232;51.678;6.610;2022-07-23T06:12:22;16.80;1.00
16249;DHT22;8232;51.678;6.610;2022-07-23T06:14:51;17.10;1.00
16249;DHT22;8232;51.678;6.610;2022-07-23T06:17:18;17.30;1.00
16249;DHT22;8232;51.678;6.610;2022-07-23T06:19:45;17.40;1.00
16249;DHT22;8232;51.678;6.610;2022-07-23T06:22:12;17.50;1.00
16249;DHT22;8232;51.678;6.610;2022-07-23T06:24:39;17.50;1.00
16249;DHT22;8232;51.678;6.610;2022-07-23T06:27:05;17.90;1.00
16249;DHT22;8232;51.678;6.610;2022-07-23T06:29:32;18.10;1.00
16249;DHT22;8232;51.678;6.610;2022-07-23T06:32:00;18.70;1.00
16249;DHT22;8232;51.678;6.610;2022-07-23T06:34:27;18.70;1.00
16249;DHT22;8232;51.678;6.610;2022-07-23T06:36:54;18.90;1.00
16249;DHT22;8232;51.678;6.610;2022-07-23T06:39:21;19.20;1.00
16249;DHT22;8232;51.678;6.610;2022-07-23T06:41:48;19.40;1.00
16249;DHT22;8232;51.678;6.610;2022-07-23T06:44:15;19.10;1.00
16249;DHT22;8232;51.678;6.610;2022-07-23T06:46:42;19.40;1.00
16249;DHT22;8232;51.678;6.610;2022-07-23T06:49:10;19.20;1.00
16249;DHT22;8232;51.678;6.610;2022-07-23T06:51:37;19.40;1.00
16249;DHT22;8232;51.678;6.610;2022-07-23T06:54:04;19.30;1.00
16249;DHT22;8232;51.678;6.610;2022-07-23T06:56:31;19.40;1.00
16249;DHT22;8232;51.678;6.610;2022-07-23T06:58:57;19.80;1.00
16249;DHT22;8232;51.678;6.610;2022-07-23T07:01:24;19.60;1.00
16249;DHT22;8232;51.678;6.610;2022-07-23T07:03:52;19.70;1.00
16249;DHT22;8232;51.678;6.610;2022-07-23T07:06:20;19.70;1.00
16249;DHT22;8232;51.678;6.610;2022-07-23T07:08:47;19.70;1.00
16249;DHT22;8232;51.678;6.610;2022-07-23T07:11:14;20.20;1.00
16249;DHT22;8232;51.678;6.610;2022-07-23T07:13:40;19.80;1.00
16249;DHT22;8232;51.678;6.610;2022-07-23T07:16:07;19.80;1.00
16249;DHT22;8232;51.678;6.610;2022-07-23T07:18:34;19.90;1.00
16249;DHT22;8232;51.678;6.610;2022-07-23T07:21:01;20.10;1.00
16249;DHT22;8232;51.678;6.610;2022-07-23T07:23:29;20.20;1.00
16249;DHT22;8232;51.678;6.610;2022-07-23T07:25:56;21.00;1.00
16249;DHT22;8232;51.678;6.610;2022-07-23T07:28:23;21.00;1.00
16249;DHT22;8232;51.678;6.610;2022-07-23T07:30:50;21.10;1.00
16249;DHT22;8232;51.678;6.610;2022-07-23T07:33:17;20.80;1.00
16249;DHT22;8232;51.678;6.610;2022-07-23T07:35:44;20.80;1.00
16249;DHT22;8232;51.678;6.610;2022-07-23T07:38:10;21.00;1.00
16249;DHT22;8232;51.678;6.610;2022-07-23T07:40:38;21.50;1.00
16249;DHT22;8232;51.678;6.610;2022-07-23T07:43:06;21.50;1.00
16249;DHT22;8232;51.678;6.610;2022-07-23T07:45:33;21.50;1.00
16249;DHT22;8232;51.678;6.610;2022-07-23T07:47:59;21.20;1.00
16249;DHT22;8232;51.678;6.610;2022-07-23T07:50:26;21.50;1.00
16249;DHT22;8232;51.678;6.610;2022-07-23T07:52:53;21.90;1.00
16249;DHT22;8232;51.678;6.610;2022-07-23T07:55:20;22.20;1.00
16249;DHT22;8232;51.678;6.610;2022-07-23T07:57:48;21.90;1.00
16249;DHT22;8232;51.678;6.610;2022-07-23T08:00:16;22.10;1.00
16249;DHT22;8232;51.678;6.610;2022-07-23T08:02:45;21.90;1.00
16249;DHT22;8232;51.678;6.610;2022-07-23T08:05:12;21.90;1.00
16249;DHT22;8232;51.678;6.610;2022-07-23T08:07:39;21.90;1.00
16249;DHT22;8232;51.678;6.610;2022-07-23T08:10:07;21.60;1.00
16249;DHT22;8232;51.678;6.610;2022-07-23T08:12:44;21.90;1.00
16249;DHT22;8232;51.678;6.610;2022-07-23T08:15:13;22.10;1.00
16249;DHT22;8232;51.678;6.610;2022-07-23T08:17:40;22.00;1.00
16249;DHT22;8232;51.678;6.610;2022-07-23T08:20:08;22.30;1.00
16249;DHT22;8232;51.678;6.610;2022-07-23T08:22:43;22.00;1.00
16249;DHT22;8232;51.678;6.610;2022-07-23T08:25:10;22.40;1.00
16249;DHT22;8232;51.678;6.610;2022-07-23T08:27:37;22.50;1.00
16249;DHT22;8232;51.678;6.610;2022-07-23T08:30:05;23.20;1.00
16249;DHT22;8232;51.678;6.610;2022-07-23T08:32:33;23.70;1.00
16249;DHT22;8232;51.678;6.610;2022-07-23T08:35:13;23.40;1.00
16249;DHT22;8232;51.678;6.610;2022-07-23T08:37:40;22.50;1.00
16249;DHT22;8232;51.678;6.610;2022-07-23T08:40:08;23.60;1.00
16249;DHT22;8232;51.678;6.610;2022-07-23T08:42:35;24.00;1.00
16249;DHT22;8232;51.678;6.610;2022-07-23T08:45:03;24.90;1.00
16249;DHT22;8232;51.678;6.610;2022-07-23T08:47:30;25.80;1.00
16249;DHT22;8232;51.678;6.610;2022-07-23T08:49:59;25.60;1.00
16249;DHT22;8232;51.678;6.610;2022-07-23T08:52:26;25.20;1.00
16249;DHT22;8232;51.678;6.610;2022-07-23T08:54:54;25.60;1.00
16249;DHT22;8232;51.678;6.610;2022-07-23T08:57:21;26.00;1.00
16249;DHT22;8232;51.678;6.610;2022-07-23T08:59:48;25.80;1.00
16249;DHT22;8232;51.678;6.610;2022-07-23T09:02:15;26.30;1.00
16249;DHT22;8232;51.678;6.610;2022-07-23T09:04:42;26.90;1.00
16249;DHT22;8232;51.678;6.610;2022-07-23T09:07:10;26.80;1.00
16249;DHT22;8232;51.678;6.610;2022-07-23T09:09:37;27.10;1.00
16249;DHT22;8232;51.678;6.610;2022-07-23T09:12:05;28.10;1.00
16249;DHT22;8232;51.678;6.610;2022-07-23T09:14:36;29.00;1.00
16249;DHT22;8232;51.678;6.610;2022-07-23T09:17:09;28.40;1.00
16249;DHT22;8232;51.678;6.610;2022-07-23T09:19:36;28.70;1.00
16249;DHT22;8232;51.678;6.610;2022-07-23T09:22:18;28.30;1.00
16249;DHT22;8232;51.678;6.610;2022-07-23T09:25:07;28.80;1.00
16249;DHT22;8232;51.678;6.610;2022-07-23T09:27:59;29.20;1.00
16249;DHT22;8232;51.678;6.610;2022-07-23T09:30:30;29.90;1.00
16249;DHT22;8232;51.678;6.610;2022-07-23T09:33:05;30.70;1.00
16249;DHT22;8232;51.678;6.610;2022-07-23T09:35:49;29.70;1.00
16249;DHT22;8232;51.678;6.610;2022-07-23T09:38:21;29.20;1.00
16249;DHT22;8232;51.678;6.610;2022-07-23T09:41:07;29.30;1.00
16249;DHT22;8232;51.678;6.610;2022-07-23T09:43:34;30.00;1.00
16249;DHT22;8232;51.678;6.610;2022-07-23T09:46:16;29.70;1.00
16249;DHT22;8232;51.678;6.610;2022-07-23T09:48:43;29.50;1.00
16249;DHT22;8232;51.678;6.610;2022-07-23T09:51:10;31.90;1.00
16249;DHT22;8232;51.678;6.610;2022-07-23T09:53:38;31.20;1.00
16249;DHT22;8232;51.678;6.610;2022-07-23T09:56:06;31.10;1.00
16249;DHT22;8232;51.678;6.610;2022-07-23T09:58:35;31.10;1.00
16249;DHT22;8232;51.678;6.610;2022-07-23T10:01:09;31.50;1.00
16249;DHT22;8232;51.678;6.610;2022-07-23T10:03:37;30.80;1.00
16249;DHT22;8232;51.678;6.610;2022-07-23T10:06:04;31.40;1.00
16249;DHT22;8232;51.678;6.610;2022-07-23T10:08:32;32.00;1.00
16249;DHT22;8232;51.678;6.610;2022-07-23T10:11:01;32.00;1.00
16249;DHT22;8232;51.678;6.610;2022-07-23T10:13:28;31.30;1.00
16249;DHT22;8232;51.678;6.610;2022-07-23T10:16:13;31.30;1.00
16249;DHT22;8232;51.678;6.610;2022-07-23T10:18:40;31.50;1.00
16249;DHT22;8232;51.678;6.610;2022-07-23T10:21:08;31.60;1.00
16249;DHT22;8232;51.678;6.610;2022-07-23T10:23:42;30.90;1.00
16249;DHT22;8232;51.678;6.610;2022-07-23T10:26:17;31.90;1.00
16249;DHT22;8232;51.678;6.610;2022-07-23T10:29:00;32.10;1.00
16249;DHT22;8232;51.678;6.610;2022-07-23T10:31:35;31.40;1.00
16249;DHT22;8232;51.678;6.610;2022-07-23T10:34:14;32.60;1.00
16249;DHT22;8232;51.678;6.610;2022-07-23T10:36:47;33.50;1.00
16249;DHT22;8232;51.678;6.610;2022-07-23T10:39:21;33.40;1.00
16249;DHT22;8232;51.678;6.610;2022-07-23T10:41:51;33.30;1.00
16249;DHT22;8232;51.678;6.610;2022-07-23T10:44:20;33.00;1.00
16249;DHT22;8232;51.678;6.610;2022-07-23T10:46:57;32.20;1.00
16249;DHT22;8232;51.678;6.610;2022-07-23T10:49:37;32.60;1.00
16249;DHT22;8232;51.678;6.610;2022-07-23T10:52:22;33.20;1.00
16249;DHT22;8232;51.678;6.610;2022-07-23T10:54:51;32.40;1.00
16249;DHT22;8232;51.678;6.610;2022-07-23T10:57:20;32.60;1.00
16249;DHT22;8232;51.678;6.610;2022-07-23T11:02:52;32.80;1.00
16249;DHT22;8232;51.678;6.610;2022-07-23T11:05:20;33.10;1.00
16249;DHT22;8232;51.678;6.610;2022-07-23T11:08:12;33.90;1.00
16249;DHT22;8232;51.678;6.610;2022-07-23T11:10:44;33.50;1.00
16249;DHT22;8232;51.678;6.610;2022-07-23T11:16:21;34.10;1.00
16249;DHT22;8232;51.678;6.610;2022-07-23T11:19:07;33.00;1.00
16249;DHT22;8232;51.678;6.610;2022-07-23T11:21:50;33.50;1.00
16249;DHT22;8232;51.678;6.610;2022-07-23T11:24:22;34.20;1.00
16249;DHT22;8232;51.678;6.610;2022-07-23T11:27:01;35.00;1.00
16249;DHT22;8232;51.678;6.610;2022-07-23T11:29:48;35.30;99.90
16249;DHT22;8232;51.678;6.610;2022-07-23T11:32:29;34.30;99.90
16249;DHT22;8232;51.678;6.610;2022-07-23T11:34:56;34.50;99.90
16249;DHT22;8232;51.678;6.610;2022-07-23T11:37:36;33.40;99.90
16249;DHT22;8232;51.678;6.610;2022-07-23T11:40:06;35.40;99.90
16249;DHT22;8232;51.678;6.610;2022-07-23T11:42:34;34.80;1.00
16249;DHT22;8232;51.678;6.610;2022-07-23T11:45:04;35.20;99.90
16249;DHT22;8232;51.678;6.610;2022-07-23T11:47:31;35.30;99.90
16249;DHT22;8232;51.678;6.610;2022-07-23T11:49:59;33.90;99.90
16249;DHT22;8232;51.678;6.610;2022-07-23T11:52:27;34.80;99.90
16249;DHT22;8232;51.678;6.610;2022-07-23T11:54:55;35.60;99.90
16249;DHT22;8232;51.678;6.610;2022-07-23T11:57:26;35.00;99.90
16249;DHT22;8232;51.678;6.610;2022-07-23T11:59:56;35.00;99.90
16249;DHT22;8232;51.678;6.610;2022-07-23T12:02:25;33.00;99.90
16249;DHT22;8232;51.678;6.610;2022-07-23T12:04:52;34.90;99.90
16249;DHT22;8232;51.678;6.610;2022-07-23T12:07:27;35.10;99.90
16249;DHT22;8232;51.678;6.610;2022-07-23T12:09:55;35.40;99.90
16249;DHT22;8232;51.678;6.610;2022-07-23T12:12:23;36.00;99.90
16249;DHT22;8232;51.678;6.610;2022-07-23T12:14:52;33.80;99.90
16249;DHT22;8232;51.678;6.610;2022-07-23T12:17:20;34.60;99.90
16249;DHT22;8232;51.678;6.610;2022-07-23T12:19:49;33.90;99.90
16249;DHT22;8232;51.678;6.610;2022-07-23T12:22:16;34.30;99.90
16249;DHT22;8232;51.678;6.610;2022-07-23T12:24:57;34.60;99.90
16249;DHT22;8232;51.678;6.610;2022-07-23T12:27:24;36.00;99.90
16249;DHT22;8232;51.678;6.610;2022-07-23T12:29:51;36.80;99.90
16249;DHT22;8232;51.678;6.610;2022-07-23T12:32:20;36.30;99.90
16249;DHT22;8232;51.678;6.610;2022-07-23T12:34:50;34.50;99.90
16249;DHT22;8232;51.678;6.610;2022-07-23T12:37:27;34.60;99.90
16249;DHT22;8232;51.678;6.610;2022-07-23T12:39:55;35.20;99.90
16249;DHT22;8232;51.678;6.610;2022-07-23T12:42:22;35.10;99.90
16249;DHT22;8232;51.678;6.610;2022-07-23T12:45:13;35.30;99.90
16249;DHT22;8232;51.678;6.610;2022-07-23T12:47:59;35.60;99.90
16249;DHT22;8232;51.678;6.610;2022-07-23T12:50:40;35.00;99.90
16249;DHT22;8232;51.678;6.610;2022-07-23T12:53:10;33.60;99.90
16249;DHT22;8232;51.678;6.610;2022-07-23T12:55:37;32.80;99.90
16249;DHT22;8232;51.678;6.610;2022-07-23T12:58:06;33.00;99.90
16249;DHT22;8232;51.678;6.610;2022-07-23T13:00:55;33.70;99.90
16249;DHT22;8232;51.678;6.610;2022-07-23T13:03:27;34.10;99.90
16249;DHT22;8232;51.678;6.610;2022-07-23T13:05:55;34.10;99.90
16249;DHT22;8232;51.678;6.610;2022-07-23T13:08:23;35.30;99.90
16249;DHT22;8232;51.678;6.610;2022-07-23T13:10:50;32.40;99.90
16249;DHT22;8232;51.678;6.610;2022-07-23T13:13:20;34.90;99.90
16249;DHT22;8232;51.678;6.610;2022-07-23T13:15:48;35.10;99.90
16249;DHT22;8232;51.678;6.610;2022-07-23T13:18:15;32.20;99.90
16249;DHT22;8232;51.678;6.610;2022-07-23T13:20:43;33.10;99.90
16249;DHT22;8232;51.678;6.610;2022-07-23T13:23:11;32.20;99.90
16249;DHT22;8232;51.678;6.610;2022-07-23T13:25:38;31.50;99.90
16249;DHT22;8232;51.678;6.610;2022-07-23T13:28:05;32.30;99.90
16249;DHT22;8232;51.678;6.610;2022-07-23T13:30:32;33.40;99.90
16249;DHT22;8232;51.678;6.610;2022-07-23T13:33:00;33.10;99.90
16249;DHT22;8232;51.678;6.610;2022-07-23T13:35:27;32.10;99.90
16249;DHT22;8232;51.678;6.610;2022-07-23T13:37:54;29.50;99.90
16249;DHT22;8232;51.678;6.610;2022-07-23T13:40:22;29.60;99.90
16249;DHT22;8232;51.678;6.610;2022-07-23T13:42:49;32.70;99.90
16249;DHT22;8232;51.678;6.610;2022-07-23T13:45:16;33.60;99.90
16249;DHT22;8232;51.678;6.610;2022-07-23T13:47:43;31.10;99.90
16249;DHT22;8232;51.678;6.610;2022-07-23T13:50:10;28.40;99.90
16249;DHT22;8232;51.678;6.610;2022-07-23T13:52:37;30.10;99.90
16249;DHT22;8232;51.678;6.610;2022-07-23T13:55:05;31.20;99.90
16249;DHT22;8232;51.678;6.610;2022-07-23T13:57:34;30.90;99.90
16249;DHT22;8232;51.678;6.610;2022-07-23T14:00:03;31.20;99.90
16249;DHT22;8232;51.678;6.610;2022-07-23T14:02:30;30.40;99.90
16249;DHT22;8232;51.678;6.610;2022-07-23T14:04:56;30.90;99.90
16249;DHT22;8232;51.678;6.610;2022-07-23T14:07:23;29.90;99.90
16249;DHT22;8232;51.678;6.610;2022-07-23T14:09:50;28.80;99.90
16249;DHT22;8232;51.678;6.610;2022-07-23T14:12:17;27.60;99.90
16249;DHT22;8232;51.678;6.610;2022-07-23T14:14:45;28.20;99.90
16249;DHT22;8232;51.678;6.610;2022-07-23T14:17:12;26.90;99.90
16249;DHT22;8232;51.678;6.610;2022-07-23T14:19:39;27.30;99.90
16249;DHT22;8232;51.678;6.610;2022-07-23T14:22:06;28.00;99.90
16249;DHT22;8232;51.678;6.610;2022-07-23T14:24:33;27.30;99.90
16249;DHT22;8232;51.678;6.610;2022-07-23T14:27:00;26.80;99.90
16249;DHT22;8232;51.678;6.610;2022-07-23T14:29:28;27.20;99.90
16249;DHT22;8232;51.678;6.610;2022-07-23T14:31:57;26.80;99.90
16249;DHT22;8232;51.678;6.610;2022-07-23T14:34:24;27.00;99.90
16249;DHT22;8232;51.678;6.610;2022-07-23T14:36:51;26.80;99.90
16249;DHT22;8232;51.678;6.610;2022-07-23T14:39:18;27.20;99.90
16249;DHT22;8232;51.678;6.610;2022-07-23T14:41:45;27.00;99.90
16249;DHT22;8232;51.678;6.610;2022-07-23T14:44:12;26.80;99.90
16249;DHT22;8232;51.678;6.610;2022-07-23T14:46:39;26.60;99.90
16249;DHT22;8232;51.678;6.610;2022-07-23T14:49:07;26.50;99.90
16249;DHT22;8232;51.678;6.610;2022-07-23T14:51:34;26.40;99.90
16249;DHT22;8232;51.678;6.610;2022-07-23T14:54:02;26.20;99.90
16249;DHT22;8232;51.678;6.610;2022-07-23T14:56:29;26.00;99.90
16249;DHT22;8232;51.678;6.610;2022-07-23T14:58:56;26.20;99.90
16249;DHT22;8232;51.678;6.610;2022-07-23T15:01:23;26.10;99.90
16249;DHT22;8232;51.678;6.610;2022-07-23T15:03:50;26.30;99.90
16249;DHT22;8232;51.678;6.610;2022-07-23T15:06:18;26.00;99.90
16249;DHT22;8232;51.678;6.610;2022-07-23T15:08:45;26.20;99.90
16249;DHT22;8232;51.678;6.610;2022-07-23T15:11:11;25.90;99.90
16249;DHT22;8232;51.678;6.610;2022-07-23T15:13:38;26.20;99.90
16249;DHT22;8232;51.678;6.610;2022-07-23T15:16:06;26.40;99.90
16249;DHT22;8232;51.678;6.610;2022-07-23T15:18:33;25.90;99.90
16249;DHT22;8232;51.678;6.610;2022-07-23T15:21:00;26.10;99.90
16249;DHT22;8232;51.678;6.610;2022-07-23T15:23:29;26.40;99.90
16249;DHT22;8232;51.678;6.610;2022-07-23T15:25:56;26.30;99.90
16249;DHT22;8232;51.678;6.610;2022-07-23T15:28:23;26.10;99.90
16249;DHT22;8232;51.678;6.610;2022-07-23T15:30:50;26.20;99.90
16249;DHT22;8232;51.678;6.610;2022-07-23T15:33:17;25.80;99.90
16249;DHT22;8232;51.678;6.610;2022-07-23T15:35:44;25.80;99.90
16249;DHT22;8232;51.678;6.610;2022-07-23T15:38:11;25.80;99.90
16249;DHT22;8232;51.678;6.610;2022-07-23T15:40:39;25.90;99.90
16249;DHT22;8232;51.678;6.610;2022-07-23T15:43:06;26.00;99.90
16249;DHT22;8232;51.678;6.610;2022-07-23T15:45:33;25.60;99.90
16249;DHT22;8232;51.678;6.610;2022-07-23T15:48:00;25.30;99.90
16249;DHT22;8232;51.678;6.610;2022-07-23T15:50:27;25.50;99.90
16249;DHT22;8232;51.678;6.610;2022-07-23T15:52:54;25.30;99.90
16249;DHT22;8232;51.678;6.610;2022-07-23T15:55:21;25.50;99.90
16249;DHT22;8232;51.678;6.610;2022-07-23T15:57:50;25.40;99.90
16249;DHT22;8232;51.678;6.610;2022-07-23T16:00:17;25.40;99.90
16249;DHT22;8232;51.678;6.610;2022-07-23T16:02:44;25.50;99.90
16249;DHT22;8232;51.678;6.610;2022-07-23T16:05:11;25.60;99.90
16249;DHT22;8232;51.678;6.610;2022-07-23T16:07:38;25.30;99.90
16249;DHT22;8232;51.678;6.610;2022-07-23T16:10:06;25.10;99.90
16249;DHT22;8232;51.678;6.610;2022-07-23T16:12:34;25.00;99.90